createdAt,value
2022-11-14T00:04:07.546Z,24.8
2022-11-14T00:09:36.598Z,24.6
2022-11-14T00:14:58.136Z,25.2
2022-11-14T00:20:05.071Z,25.8
2022-11-14T00:25:43.894Z,25.3
2022-11-14T00:31:21.353Z,25.1
2022-11-14T00:36:59.196Z,25.2
2022-11-14T00:42:06.946Z,25.1
2022-11-14T00:47:28.993Z,24.9
2022-11-14T00:53:06.600Z,24.6
2022-11-14T00:58:45.352Z,24.4
2022-11-14T01:04:27.992Z,24.1
2022-11-14T01:10:05.806Z,23.8
2022-11-14T01:15:29.396Z,23.6
2022-11-14T01:21:06.099Z,23.3
2022-11-14T01:26:33.133Z,23.1
2022-11-14T01:32:11.853Z,22.9
2022-11-14T01:37:33.082Z,22.7
2022-11-14T01:43:16.767Z,22.5
2022-11-14T01:48:55.260Z,22.3
2022-11-14T01:54:31.785Z,22.1
2022-11-14T01:59:38.722Z,22
2022-11-14T02:05:22.193Z,21.8
2022-11-14T02:11:00.486Z,21.8
2022-11-14T02:16:37.185Z,21.7
2022-11-14T02:22:37.846Z,21.6
2022-11-14T02:28:01.219Z,21.5
2022-11-14T02:33:44.294Z,21.4
2022-11-14T02:39:22.987Z,21.4
2022-11-14T02:45:00.251Z,21.3
2022-11-14T02:50:38.237Z,21.3
2022-11-14T02:56:02.906Z,21.3
2022-11-14T03:01:20.584Z,21.2
2022-11-14T03:06:12.421Z,21.2
2022-11-14T03:10:49.100Z,21.1
2022-11-14T03:16:27.736Z,21.1
2022-11-14T03:21:34.332Z,21.1
2022-11-14T03:27:11.924Z,21
2022-11-14T03:32:50.013Z,20.9
2022-11-14T03:38:30.039Z,20.9
2022-11-14T03:44:07.398Z,20.9
2022-11-14T03:49:45.439Z,20.8
2022-11-14T03:55:07.578Z,20.8
2022-11-14T04:00:14.506Z,20.8
2022-11-14T04:05:37.679Z,20.8
2022-11-14T04:11:16.703Z,20.7
2022-11-14T04:16:58.282Z,20.7
2022-11-14T04:22:25.680Z,20.6
2022-11-14T04:27:48.446Z,20.6
2022-11-14T04:33:25.880Z,20.6
2022-11-14T04:38:50.328Z,20.6
2022-11-14T04:44:28.341Z,20.6
2022-11-14T04:50:06.404Z,20.5
2022-11-14T04:55:27.615Z,20.4
2022-11-14T05:00:56.270Z,20.3
2022-11-14T05:06:18.410Z,20.3
2022-11-14T05:12:01.972Z,20.2
2022-11-14T05:17:21.958Z,20.1
2022-11-14T05:22:58.714Z,20.1
2022-11-14T05:28:24.905Z,20
2022-11-14T05:33:20.045Z,19.9
2022-11-14T05:38:41.673Z,19.9
2022-11-14T05:43:48.348Z,19.9
2022-11-14T05:49:25.755Z,19.9
2022-11-14T05:55:03.671Z,19.9
2022-11-14T06:00:52.149Z,19.8
2022-11-14T06:06:16.136Z,19.8
2022-11-14T06:11:54.461Z,19.7
2022-11-14T06:17:32.690Z,19.6
2022-11-14T06:23:10.580Z,19.6
2022-11-14T06:28:48.261Z,19.6
2022-11-14T06:34:29.835Z,19.6
2022-11-14T06:40:07.618Z,19.6
2022-11-14T06:45:51.383Z,19.5
2022-11-14T06:51:03.346Z,19.5
2022-11-14T06:56:47.389Z,19.5
2022-11-14T07:02:10.389Z,19.4
2022-11-14T07:07:32.762Z,19.4
2022-11-14T07:12:54.100Z,19.4
2022-11-14T07:18:20.440Z,19.4
2022-11-14T07:23:42.370Z,19.4
2022-11-14T07:29:10.025Z,19.5
2022-11-14T07:34:31.332Z,19.4
2022-11-14T07:39:54.302Z,19.4
2022-11-14T07:45:16.736Z,19.4
2022-11-14T07:50:38.895Z,19.4
2022-11-14T07:56:00.883Z,19.4
2022-11-14T08:01:27.108Z,19.4
2022-11-14T08:07:05.599Z,19.4
2022-11-14T08:12:41.902Z,19.4
2022-11-14T08:18:31.242Z,19.4
2022-11-14T08:23:53.936Z,19.3
2022-11-14T08:29:37.778Z,19.3
2022-11-14T08:35:04.593Z,19.3
2022-11-14T08:40:43.540Z,19.3
2022-11-14T08:46:21.568Z,19.3
2022-11-14T08:51:59.050Z,19.2
2022-11-14T08:57:38.590Z,19.2
2022-11-14T09:03:18.195Z,19.2
2022-11-14T09:09:01.976Z,19.2
2022-11-14T09:14:42.141Z,19.1
2022-11-14T09:20:31.622Z,19.1
2022-11-14T09:26:16.054Z,19.1
2022-11-14T09:31:57.552Z,19.1
2022-11-14T09:37:39.192Z,19.1
2022-11-14T09:43:24.586Z,19.1
2022-11-14T09:49:05.044Z,19
2022-11-14T09:54:48.208Z,19
2022-11-14T10:00:27.284Z,19
2022-11-14T10:05:55.103Z,19
2022-11-14T10:11:34.272Z,18.9
2022-11-14T10:16:57.603Z,19
2022-11-14T10:22:35.769Z,19
2022-11-14T10:28:21.536Z,18.9
2022-11-14T10:33:58.685Z,18.9
2022-11-14T10:39:44.289Z,18.9
2022-11-14T10:45:55.090Z,18.9
2022-11-14T10:51:18.123Z,18.9
2022-11-14T10:57:25.688Z,18.9
2022-11-14T11:03:14.444Z,18.9
2022-11-14T11:10:23.064Z,18.9
2022-11-14T11:15:45.555Z,18.9
2022-11-14T11:21:20.090Z,18.9
2022-11-14T11:26:58.244Z,18.8
2022-11-14T11:32:36.591Z,18.8
2022-11-14T11:38:15.929Z,18.8
2022-11-14T11:45:20.922Z,18.8
2022-11-14T11:50:44.098Z,18.8
2022-11-14T11:56:22.437Z,18.8
2022-11-14T12:01:50.094Z,18.8
2022-11-14T12:07:35.408Z,18.8
2022-11-14T12:13:49.319Z,18.8
2022-11-14T12:19:33.324Z,18.8
2022-11-14T12:25:18.553Z,18.8
2022-11-14T12:31:03.278Z,18.8
2022-11-14T12:36:42.213Z,18.8
2022-11-14T12:42:22.960Z,18.8
2022-11-14T12:48:04.366Z,18.8
2022-11-14T12:53:44.681Z,18.8
2022-11-14T12:59:25.309Z,18.8
2022-11-14T13:15:48.782Z,18.8
2022-11-14T13:21:27.981Z,18.8
2022-11-14T13:26:52.218Z,18.8
2022-11-14T13:33:09.044Z,18.8
2022-11-14T13:38:52.705Z,18.8
2022-11-14T13:44:36.145Z,18.8
2022-11-14T13:50:14.333Z,18.8
2022-11-14T13:56:20.701Z,18.8
2022-11-14T14:02:01.482Z,18.8
2022-11-14T14:07:45.803Z,18.8
2022-11-14T14:13:24.181Z,18.8
2022-11-14T14:19:03.268Z,18.9
2022-11-14T14:24:47.658Z,18.9
2022-11-14T14:30:29.887Z,18.8
2022-11-14T14:36:13.708Z,18.8
2022-11-14T14:41:52.689Z,18.8
2022-11-14T14:47:35.580Z,18.8
2022-11-14T14:53:19.057Z,18.9
2022-11-14T14:58:56.837Z,18.9
2022-11-14T15:04:25.946Z,18.9
2022-11-14T15:10:03.955Z,18.9
2022-11-14T15:15:42.423Z,18.9
2022-11-14T15:21:27.682Z,18.9
2022-11-14T15:27:05.824Z,18.8
2022-11-14T15:32:28.718Z,18.8
2022-11-14T15:44:20.551Z,18.8
2022-11-14T15:49:58.971Z,18.8
2022-11-14T15:55:37.548Z,18.8
2022-11-14T16:01:41.453Z,18.8
2022-11-14T16:07:19.743Z,18.8
2022-11-14T16:39:45.210Z,18.6
2022-11-14T16:50:22.358Z,18.6
2022-11-14T16:56:14.392Z,29.9
2022-11-14T17:01:54.713Z,34.9
2022-11-14T17:07:21.681Z,36.8
2022-11-14T17:12:45.713Z,37.9
2022-11-14T17:18:25.262Z,38.5
2022-11-14T17:23:46.684Z,38.9
2022-11-14T17:29:15.195Z,38.9
2022-11-14T17:34:10.113Z,38.8
2022-11-14T17:39:46.965Z,38.4
2022-11-14T17:45:25.050Z,39
2022-11-14T17:51:07.606Z,39.2
2022-11-14T17:56:29.984Z,38.9
2022-11-14T18:02:14.021Z,38.9
2022-11-14T18:07:42.451Z,38.3
2022-11-14T18:13:23.974Z,37.9
2022-11-14T18:19:19.855Z,36.6
2022-11-14T18:24:57.992Z,38.1
2022-11-14T18:30:58.242Z,39
2022-11-14T18:36:36.148Z,39.6
2022-11-14T18:41:48.224Z,39.4
2022-11-14T18:47:27.054Z,39.4
2022-11-14T18:52:54.762Z,39.7
2022-11-14T18:58:02.706Z,39.3
2022-11-14T19:03:41.735Z,39.1
2022-11-14T19:09:08.227Z,38.5
2022-11-14T19:14:48.722Z,38.1
2022-11-14T19:20:30.822Z,37.8
2022-11-14T19:26:10.951Z,37.3
2022-11-14T19:31:48.964Z,37.6
2022-11-14T19:37:47.148Z,36.3
2022-11-14T19:43:11.474Z,36.3
2022-11-14T19:48:50.198Z,35.8
2022-11-14T19:54:15.555Z,35.6
2022-11-14T19:59:57.427Z,35.1
2022-11-14T20:05:36.027Z,34.9
2022-11-14T20:11:17.596Z,33.9
2022-11-14T20:16:40.113Z,33.7
2022-11-14T20:22:04.281Z,33.3
2022-11-14T20:27:33.133Z,32.8
2022-11-14T20:32:55.100Z,32.8
2022-11-14T20:38:56.085Z,35.3
2022-11-14T20:44:34.747Z,34.9
2022-11-14T20:49:58.915Z,35.6
2022-11-14T20:55:27.043Z,36.7
2022-11-14T21:01:04.203Z,35.3
2022-11-14T21:06:43.635Z,36.2
2022-11-14T21:12:22.370Z,35.1
2022-11-14T21:17:58.816Z,35.3
2022-11-14T21:23:36.315Z,34.3
2022-11-14T21:29:05.533Z,34.5
2022-11-14T21:34:27.486Z,35.6
2022-11-14T21:40:41.418Z,35.8
2022-11-14T21:46:23.628Z,37.2
2022-11-14T21:52:01.849Z,37.3
2022-11-14T21:57:10.329Z,37.1
2022-11-14T22:02:33.481Z,35.6
2022-11-14T22:08:15.047Z,36.1
2022-11-14T22:13:54.884Z,36.6
2022-11-14T22:19:38.535Z,34.9
2022-11-14T22:25:00.959Z,34.1
2022-11-14T22:30:06.959Z,35.3
2022-11-14T22:35:44.959Z,34.3
2022-11-14T22:41:26.433Z,34
2022-11-14T22:47:06.636Z,34.5
2022-11-14T22:52:44.057Z,33.3
2022-11-14T22:57:34.994Z,33.1
2022-11-14T23:03:16.254Z,32.9
2022-11-14T23:08:58.028Z,33
2022-11-14T23:14:36.255Z,33.1
2022-11-14T23:20:16.534Z,32.8
2022-11-14T23:25:38.092Z,32.1
2022-11-14T23:31:15.958Z,31.3
2022-11-14T23:36:53.199Z,30.7
2022-11-14T23:42:30.727Z,30.2
2022-11-14T23:48:07.543Z,29.9
2022-11-14T23:53:29.809Z,29.7
2022-11-14T23:59:07.244Z,29.6
